Falconerville, Virginia
Current Conditions -  °F | °C
As of 10:54 PM on Saturday 24 Jan 2015 (Local Time) from KLYH Reporting Station
Overcast Overcast  
Wind Chill: 32°   Ceiling: 3700
Heat Index: 37°   Visibility: 10mi
Dew Point: 26°   Wind: 7mph
Humidity: 65%   Direction: 260°W
Pressure: 29.74"   Gusts: NA
Location:  37.6339°N, 79.0642°W
Report Text: KLYH 250354Z AUTO 26006KT 10SM OVC037 03/M03 A2974 RMK AO2 SLP075 T00281033
Loading
Personal Weather Stations






























Interactive Weather Map New forecast layout! Learn more

10-Day Weather Forecast

Advertisements
Track Severe Weather on mobile